首页
METAR-TAF:

METAR-TAF

机场 :

圣约翰斯国际机场

聖約翰斯, 紐芬蘭-拉布拉多, 加拿大

纬度: 47-37N, 经度: 052-44W, 海拔: 134米

当前天气观测

该预报发布于56分钟前的21:00 UTC
风速8节,风向北转东北
温度 -8°C
湿度 67%
气压 1024 hPa
能見度: 24.1公里
少量云层高于1200英尺
多云层高于21000英尺

METAR: CYYT 272100Z 03008KT 15SM FEW012 BKN210 M08/M13 A3024 RMK SC3CI4 SLP250

时间: 18:26 (21:56 UTC)

预报

该预报发布于4小时和12分钟前的17:44 UTC
预报有效从27日的 18点(UTC)到 28日的 18点(UTC)
风速12节,风向东北
能見度: 10公里
阴天层高于1200英尺
小雪
短暂存在
从 27日的 18点(UTC)到 27日的 24点(UTC)
能見度: 10公里
多云层高于2500英尺
从 28日的 0000点(UTC)
风速12节,风向东转东北
能見度: 10公里
少量云层高于700英尺
多云层高于1200英尺
阴天层高于15000英尺
短暂存在
从 28日的 00点(UTC)到 28日的 07点(UTC)
散云层高于1200英尺
阴天层高于15000英尺
成为
从 28日的 04点(UTC)到 28日的 06点(UTC)
风速22节,风向东转东南,有时为32节阵风
从 28日的 0700点(UTC)
风速22节,风向东转东南,有时为32节阵风
能見度: 3.2公里
多云层高于900英尺
阴天层高于7000英尺
小雪
从 28日的 0900点(UTC)
风速25节,风向东南,有时为40节阵风
能見度: 0.8公里
层高于700英尺
雪, 高吹雪
从 28日的 1500点(UTC)
风速20节,风向东南,有时为30节阵风
能見度: 4.8公里
阴天层高于800英尺
小雪
几率 30%
从 28日的 15点(UTC)到 28日的 18点(UTC)
能見度: 3.2公里
(小) 冻, 毛毛雨, 轻雾

TAF: CYYT 271744Z 2718/2818 05012KT P6SM -SN OVC012 TEMPO 2718/2724 P6SM NSW BKN025 FM280000 06012KT P6SM FEW007 BKN012 OVC150 TEMPO 2800/2807 SCT012 OVC150 BECMG 2804/2806 12022G32KT FM280700 12022G32KT 2SM -SN BKN009 OVC070 FM280900 13025G40KT 1/2SM SN BLSN VV007 FM281500 13020G30KT 3SM -SN OVC008 PROB30 2815/2818 2SM -FZDZ BR RMK NXT FCST BY 280000Z

超过4000个机场的气象观测和天气预报(METAR&TAF报告)。

可查询的气象台以黄色和红色小点在地图上表示。

将鼠标移到小点上方,可查看气象台名称。

然后点击查看天气观测和预报。

如需切换地图:点击带黑十字的绿色按钮放大地图;点击带横线的绿色按钮缩小地图;或者点击绿色箭头查看邻近地区的地图。


METAR-TAF: